Accueil
METAR-TAF:

METAR-TAF

Aéroports :

Belize City, Belize

Aéroport international Philip S. W. Goldson

latitude: 17-32N, longitude: 088-18W, altitude: 5 m

Observation

Le bulletin a été fait il y a 36 minutes, à 18:00 UTC
Vent 12 kt de est
Température 29°C
Humidité 70%
Pression 1019 hPa
Visibilité 10 km ou plus
Nuages épars à une hauteur de 2400 ft

METAR: MZBZ 231800Z 08012KT 9999 SCT024 29/23 A3010 Q1019 NOSIG RMK DIST CB TOP/N

Heure: 12:36 (18:36 UTC)

Prévision

Le bulletin a été fait il y a 3 heures et 36 minutes, à 15:00 UTC
Prévision valable du 23 à 18 UTC au 24 à 18 UTC
Vent 10 kt de est
Visibilité 10 km ou plus
Nuages épars à une hauteur de 2200 ft
Nuages épars à une hauteur de 4500 ft
Probabilité 30% :
Temporairement
du 23 à 18 UTC au 23 à 22 UTC
Visibilité: 5000 m
Nuages fragmentés à une hauteur de 1500 ft
averses de pluie

TAF: MZBZ 231500Z 2318/2418 09010KT 9999 SCT022 SCT045 PROB30 TEMPO 2318/2322 5000 SHRA BKN015

Observations et prévisions météorologiques de plus de 4000 aéroports (messages METAR et TAF).

Les stations disponibles sont représentées par des disques jaunes et rouges sur la carte.

Passer la souris dessus pour voir le nom de la station.

Cliquer dessus pour voir les observations et prévisions météorologiques.

Pour changer de carte: cliquez sur les boutons verts avec une croix noire pour zoomer, sur le bouton vert avec un tiret pour effectuer un zoom arrière, ou sur les flèches vertes pour les cartes adjacentes.


METAR-TAF: